Portada
METAR-TAF:

METAR-TAF

Aeroports :

Damasc, Síria

latitud: 33-25N, longitud: 036-31E, altitud: 608 m

Observació

L'informe es va fer fa 16 minuts, a les 16:00 UTC
Vent calma
Temperatura 11°C
Humitat 87%
Pressió 1021 hPa
Visibilitat: 6000 m

METAR: OSDI 011600Z 00000KT 6000 11/09 Q1021

Hora: 18:16 (16:16 UTC)

Pronòstic

Pronòstic vàlid del 01 a les 12 UTC al 02 a les 18 UTC
Vent 10 kt del Sud-Oest
Visibilitat 10 km o més
Escasses núvols a una alçada de 3000 ft
Núvols disperses a una alçada de 10000 ft
Temporalment
l' 01 a les 22 UTC al 02 a les 09 UTC
Vent 3 kt amb direcció variable
Visibilitat: 4000 m
boirina
Temporalment
l' 01 a les 00 UTC al 02 a les 09 UTC
Visibilitat: 0200 m
boira

TAF: OSDI 0112/0218 22010KT 9999 FEW030 SCT100 TEMPO 0122/0209 VRB03KT 4000 BR TEMPO 0100/0209 0200 FG

Observacions i pronòstics meteorològics de més de 4000 aeroports (METAR i TAF).

Les estacions disponibles són els punts grocs i vermells al mapa.

Posi el ratolí al punt desitjat per veure el nom de l'estació.

Feu clic per veure les observacions i els pronòstics meteorològics.

Per canviar el mapa: feu clic els botons verds amb una creu de color negre per apropar; al botó verd amb un guió per allunyar la imatge; o en les fletxes verdes per a mapes adjacents.


METAR-TAF: